sensor_id;sensor_type;location;lat;lon;timestamp;pressure;altitude;pressure_sealevel;temperature;humidity
75717;BME280;64333;50.138;14.332;2023-02-28T00:02:16;99237.06;;;-0.66;76.96
75717;BME280;64333;50.138;14.332;2023-02-28T00:04:44;99239.56;;;-0.68;77.35
75717;BME280;64333;50.138;14.332;2023-02-28T00:07:09;99247.22;;;-0.66;77.98
75717;BME280;64333;50.138;14.332;2023-02-28T00:09:35;99234.47;;;-0.71;77.67
75717;BME280;64333;50.138;14.332;2023-02-28T00:12:00;99240.47;;;-0.64;77.99
75717;BME280;64333;50.138;14.332;2023-02-28T00:14:35;99236.25;;;-0.65;76.72
75717;BME280;64333;50.138;14.332;2023-02-28T00:17:00;99228.59;;;-0.68;76.99
75717;BME280;64333;50.138;14.332;2023-02-28T00:19:26;99237.97;;;-0.63;76.87
75717;BME280;64333;50.138;14.332;2023-02-28T00:21:51;99239.63;;;-0.66;76.81
75717;BME280;64333;50.138;14.332;2023-02-28T00:24:16;99236.19;;;-0.70;76.93
75717;BME280;64333;50.138;14.332;2023-02-28T00:26:42;99243.84;;;-0.65;77.17
75717;BME280;64333;50.138;14.332;2023-02-28T00:29:07;99247.22;;;-0.66;76.75
75717;BME280;64333;50.138;14.332;2023-02-28T00:31:32;99243.84;;;-0.65;77.10
75717;BME280;64333;50.138;14.332;2023-02-28T00:33:58;99248.88;;;-0.67;76.49
75717;BME280;64333;50.138;14.332;2023-02-28T00:36:23;99232.59;;;-0.81;76.85
75717;BME280;64333;50.138;14.332;2023-02-28T00:38:49;99240.38;;;-0.72;77.25
75717;BME280;64333;50.138;14.332;2023-02-28T00:41:14;99249.75;;;-0.66;77.49
75717;BME280;64333;50.138;14.332;2023-02-28T00:43:39;99239.63;;;-0.63;76.57
75717;BME280;64333;50.138;14.332;2023-02-28T00:46:05;99242.16;;;-0.66;76.57
75717;BME280;64333;50.138;14.332;2023-02-28T00:48:31;99236.25;;;-0.65;76.49
75717;BME280;64333;50.138;14.332;2023-02-28T00:50:56;99246.19;;;-0.77;77.13
75717;BME280;64333;50.138;14.332;2023-02-28T00:53:22;99242.84;;;-0.75;76.66
75717;BME280;64333;50.138;14.332;2023-02-28T00:55:49;99241.28;;;-0.68;76.31
75717;BME280;64333;50.138;14.332;2023-02-28T00:58:14;99240.53;;;-0.60;75.84
75717;BME280;64333;50.138;14.332;2023-02-28T01:00:39;99250.81;;;-0.52;76.13
75717;BME280;64333;50.138;14.332;2023-02-28T01:03:05;99244.06;;;-0.52;75.44
75717;BME280;64333;50.138;14.332;2023-02-28T01:05:30;99233.81;;;-0.59;75.83
75717;BME280;64333;50.138;14.332;2023-02-28T01:07:55;99240.53;;;-0.61;76.49
75717;BME280;64333;50.138;14.332;2023-02-28T01:10:21;99235.56;;;-0.55;76.11
75717;BME280;64333;50.138;14.332;2023-02-28T01:12:46;99236.41;;;-0.55;75.51
75717;BME280;64333;50.138;14.332;2023-02-28T01:15:11;99234.75;;;-0.51;75.86
75717;BME280;64333;50.138;14.332;2023-02-28T01:17:37;99236.47;;;-0.52;75.39
75717;BME280;64333;50.138;14.332;2023-02-28T01:20:03;99233.88;;;-0.56;75.96
75717;BME280;64333;50.138;14.332;2023-02-28T01:22:28;99231.28;;;-0.58;76.23
75717;BME280;64333;50.138;14.332;2023-02-28T01:24:53;99232.22;;;-0.51;75.57
75717;BME280;64333;50.138;14.332;2023-02-28T01:27:19;99223.72;;;-0.56;75.86
75717;BME280;64333;50.138;14.332;2023-02-28T01:29:44;99235.59;;;-0.52;75.88
75717;BME280;64333;50.138;14.332;2023-02-28T01:32:10;99232.22;;;-0.51;75.71
75717;BME280;64333;50.138;14.332;2023-02-28T01:34:35;99229.75;;;-0.48;76.02
75717;BME280;64333;50.138;14.332;2023-02-28T01:37:01;99233.13;;;-0.49;76.04
75717;BME280;64333;50.138;14.332;2023-02-28T01:39:26;99239.91;;;-0.47;76.38
75717;BME280;64333;50.138;14.332;2023-02-28T01:41:51;99231.47;;;-0.46;75.27
75717;BME280;64333;50.138;14.332;2023-02-28T01:47:20;99237.31;;;-0.50;74.38
75717;BME280;64333;50.138;14.332;2023-02-28T01:49:46;99235.72;;;-0.43;74.23
75717;BME280;64333;50.138;14.332;2023-02-28T01:52:13;99233.28;;;-0.37;74.09
75717;BME280;64333;50.138;14.332;2023-02-28T01:54:46;99216.25;;;-0.44;75.11
75717;BME280;64333;50.138;14.332;2023-02-28T01:57:17;99221.34;;;-0.46;74.68
75717;BME280;64333;50.138;14.332;2023-02-28T01:59:49;99218.72;;;-0.52;74.87
75717;BME280;64333;50.138;14.332;2023-02-28T02:02:19;99217.84;;;-0.52;75.62
75717;BME280;64333;50.138;14.332;2023-02-28T02:05:07;99221.34;;;-0.46;75.70
75717;BME280;64333;50.138;14.332;2023-02-28T02:07:38;99213.69;;;-0.47;74.95
75717;BME280;64333;50.138;14.332;2023-02-28T02:10:09;99221.34;;;-0.46;74.76
75717;BME280;64333;50.138;14.332;2023-02-28T02:13:04;99220.34;;;-0.55;75.56
75717;BME280;64333;50.138;14.332;2023-02-28T02:18:10;99214.41;;;-0.56;76.22
75717;BME280;64333;50.138;14.332;2023-02-28T02:26:40;99209.94;;;-0.70;74.79
75717;BME280;64333;50.138;14.332;2023-02-28T02:29:21;99208.22;;;-0.74;76.30
75717;BME280;64333;50.138;14.332;2023-02-28T02:32:19;99205.59;;;-0.80;75.28
75717;BME280;64333;50.138;14.332;2023-02-28T02:35:14;99206.25;;;-0.92;75.08
75717;BME280;64333;50.138;14.332;2023-02-28T02:37:51;99219.03;;;-0.84;75.45
75717;BME280;64333;50.138;14.332;2023-02-28T02:45:23;99209.66;;;-0.90;74.89
75717;BME280;64333;50.138;14.332;2023-02-28T02:47:50;99214.66;;;-0.94;76.18
75717;BME280;64333;50.138;14.332;2023-02-28T02:50:26;99217.19;;;-0.94;75.65
75717;BME280;64333;50.138;14.332;2023-02-28T02:52:58;99215.53;;;-0.92;75.56
75717;BME280;64333;50.138;14.332;2023-02-28T02:55:25;99217.22;;;-0.91;74.74
75717;BME280;64333;50.138;14.332;2023-02-28T02:57:54;99203.63;;;-0.96;75.39
75717;BME280;64333;50.138;14.332;2023-02-28T03:00:26;99212.00;;;-1.02;75.79
75717;BME280;64333;50.138;14.332;2023-02-28T03:02:56;99214.59;;;-0.97;74.89
75717;BME280;64333;50.138;14.332;2023-02-28T03:05:28;99211.16;;;-1.01;74.64
75717;BME280;64333;50.138;14.332;2023-02-28T03:07:55;99219.44;;;-1.11;74.15
75717;BME280;64333;50.138;14.332;2023-02-28T03:10:33;99221.13;;;-1.11;74.10
75717;BME280;64333;50.138;14.332;2023-02-28T03:16:04;99219.28;;;-1.21;74.97
75717;BME280;64333;50.138;14.332;2023-02-28T03:21:08;99224.28;;;-1.24;75.13
75717;BME280;64333;50.138;14.332;2023-02-28T03:26:26;99225.09;;;-1.25;74.98
75717;BME280;64333;50.138;14.332;2023-02-28T03:29:05;99224.16;;;-1.32;74.52
75717;BME280;64333;50.138;14.332;2023-02-28T03:36:45;99215.03;;;-1.68;75.73
75717;BME280;64333;50.138;14.332;2023-02-28T03:39:57;99220.81;;;-1.74;76.10
75717;BME280;64333;50.138;14.332;2023-02-28T03:42:24;99225.59;;;-1.89;76.82
75717;BME280;64333;50.138;14.332;2023-02-28T03:44:58;99218.63;;;-2.00;77.62
75717;BME280;64333;50.138;14.332;2023-02-28T03:47:28;99221.84;;;-2.07;77.34
75717;BME280;64333;50.138;14.332;2023-02-28T03:50:24;99213.13;;;-2.21;77.94
75717;BME280;64333;50.138;14.332;2023-02-28T03:53:06;99220.47;;;-2.32;78.16
75717;BME280;64333;50.138;14.332;2023-02-28T03:55:45;99209.22;;;-2.44;78.85
75717;BME280;64333;50.138;14.332;2023-02-28T03:58:22;99209.09;;;-2.52;79.21
75717;BME280;64333;50.138;14.332;2023-02-28T04:00:55;99208.94;;;-2.58;79.03
75717;BME280;64333;50.138;14.332;2023-02-28T04:03:22;99208.16;;;-2.55;79.29
75717;BME280;64333;50.138;14.332;2023-02-28T04:05:53;99209.78;;;-2.57;79.16
75717;BME280;64333;50.138;14.332;2023-02-28T04:08:20;99213.63;;;-2.73;79.50
75717;BME280;64333;50.138;14.332;2023-02-28T04:10:51;99205.06;;;-2.79;79.90
75717;BME280;64333;50.138;14.332;2023-02-28T04:13:18;99226.16;;;-2.77;79.96
75717;BME280;64333;50.138;14.332;2023-02-28T04:15:43;99226.81;;;-2.86;80.31
75717;BME280;64333;50.138;14.332;2023-02-28T04:18:09;99218.31;;;-2.89;80.10
75717;BME280;64333;50.138;14.332;2023-02-28T04:20:34;99222.47;;;-2.91;80.21
75717;BME280;64333;50.138;14.332;2023-02-28T04:22:59;99225.75;;;-2.95;80.69
75717;BME280;64333;50.138;14.332;2023-02-28T04:25:24;99224.03;;;-2.96;80.29
75717;BME280;64333;50.138;14.332;2023-02-28T04:27:50;99230.72;;;-2.98;80.67
75717;BME280;64333;50.138;14.332;2023-02-28T04:30:16;99226.56;;;-2.96;80.50
75717;BME280;64333;50.138;14.332;2023-02-28T04:32:41;99227.31;;;-3.00;80.80
75717;BME280;64333;50.138;14.332;2023-02-28T04:35:07;99227.28;;;-3.02;80.85
75717;BME280;64333;50.138;14.332;2023-02-28T04:37:32;99224.69;;;-3.05;80.66
75717;BME280;64333;50.138;14.332;2023-02-28T04:40:00;99227.06;;;-3.09;80.74
75717;BME280;64333;50.138;14.332;2023-02-28T04:42:25;99227.00;;;-3.12;81.63
75717;BME280;64333;50.138;14.332;2023-02-28T04:44:51;99236.97;;;-3.18;80.72
75717;BME280;64333;50.138;14.332;2023-02-28T04:47:17;99228.34;;;-3.26;81.26
75717;BME280;64333;50.138;14.332;2023-02-28T04:49:42;99233.47;;;-3.23;81.18
75717;BME280;64333;50.138;14.332;2023-02-28T04:52:07;99239.22;;;-3.29;81.49
75717;BME280;64333;50.138;14.332;2023-02-28T04:54:35;99240.16;;;-3.25;81.50
75717;BME280;64333;50.138;14.332;2023-02-28T04:57:00;99234.94;;;-3.31;81.73
75717;BME280;64333;50.138;14.332;2023-02-28T04:59:26;99236.50;;;-3.36;81.70
75717;BME280;64333;50.138;14.332;2023-02-28T05:01:52;99233.06;;;-3.38;81.75
75717;BME280;64333;50.138;14.332;2023-02-28T05:04:17;99241.53;;;-3.36;81.90
75717;BME280;64333;50.138;14.332;2023-02-28T05:06:42;99243.22;;;-3.37;81.70
75717;BME280;64333;50.138;14.332;2023-02-28T05:09:08;99233.69;;;-3.47;81.79
75717;BME280;64333;50.138;14.332;2023-02-28T05:11:34;99250.59;;;-3.44;81.85
75717;BME280;64333;50.138;14.332;2023-02-28T05:14:11;99251.47;;;-3.42;81.84
75717;BME280;64333;50.138;14.332;2023-02-28T05:16:37;99253.88;;;-3.48;82.17
75717;BME280;64333;50.138;14.332;2023-02-28T05:19:03;99247.91;;;-3.50;82.31
75717;BME280;64333;50.138;14.332;2023-02-28T05:21:34;99253.81;;;-3.50;82.30
75717;BME280;64333;50.138;14.332;2023-02-28T05:24:05;99246.81;;;-3.60;83.02
75717;BME280;64333;50.138;14.332;2023-02-28T05:26:31;99253.41;;;-3.65;83.30
75717;BME280;64333;50.138;14.332;2023-02-28T05:28:56;99262.66;;;-3.65;83.31
75717;BME280;64333;50.138;14.332;2023-02-28T05:31:22;99256.59;;;-3.72;83.53
75717;BME280;64333;50.138;14.332;2023-02-28T05:33:48;99261.72;;;-3.69;83.53
75717;BME280;64333;50.138;14.332;2023-02-28T05:36:14;99265.16;;;-3.65;83.14
75717;BME280;64333;50.138;14.332;2023-02-28T05:38:39;99260.84;;;-3.69;84.05
75717;BME280;64333;50.138;14.332;2023-02-28T05:41:09;99263.38;;;-3.69;83.32
75717;BME280;64333;50.138;14.332;2023-02-28T05:43:36;99266.69;;;-3.72;83.82
75717;BME280;64333;50.138;14.332;2023-02-28T05:46:06;99266.53;;;-3.76;84.14
75717;BME280;64333;50.138;14.332;2023-02-28T05:48:33;99271.69;;;-3.73;83.63
75717;BME280;64333;50.138;14.332;2023-02-28T05:50:59;99264.00;;;-3.76;84.06
75717;BME280;64333;50.138;14.332;2023-02-28T05:53:25;99271.69;;;-3.73;83.79
75717;BME280;64333;50.138;14.332;2023-02-28T05:55:51;99274.28;;;-3.70;83.19
75717;BME280;64333;50.138;14.332;2023-02-28T05:58:16;99273.56;;;-3.66;83.88
75717;BME280;64333;50.138;14.332;2023-02-28T06:00:42;99273.72;;;-3.29;81.28
75717;BME280;64333;50.138;14.332;2023-02-28T06:03:07;99279.16;;;-2.46;78.21
75717;BME280;64333;50.138;14.332;2023-02-28T06:05:33;99290.78;;;-1.77;74.67
75717;BME280;64333;50.138;14.332;2023-02-28T06:07:58;99295.16;;;-0.81;71.45
75717;BME280;64333;50.138;14.332;2023-02-28T06:10:23;99294.53;;;-0.13;68.77
75717;BME280;64333;50.138;14.332;2023-02-28T06:12:49;99310.06;;;0.74;65.13
75717;BME280;64333;50.138;14.332;2023-02-28T06:15:15;99315.09;;;1.55;61.41
75717;BME280;64333;50.138;14.332;2023-02-28T06:17:42;99322.59;;;2.74;57.92
75717;BME280;64333;50.138;14.332;2023-02-28T06:20:10;99325.25;;;3.28;55.61
75717;BME280;64333;50.138;14.332;2023-02-28T06:22:36;99325.31;;;3.85;52.77
75717;BME280;64333;50.138;14.332;2023-02-28T06:25:03;99325.91;;;4.83;50.70
75717;BME280;64333;50.138;14.332;2023-02-28T06:27:28;99323.34;;;4.80;49.14
75717;BME280;64333;50.138;14.332;2023-02-28T06:29:55;99332.59;;;5.07;49.61
75717;BME280;64333;50.138;14.332;2023-02-28T06:32:23;99336.50;;;5.60;47.65
75717;BME280;64333;50.138;14.332;2023-02-28T06:34:48;99341.78;;;5.42;48.00
75717;BME280;64333;50.138;14.332;2023-02-28T06:37:14;99329.09;;;6.29;46.30
75717;BME280;64333;50.138;14.332;2023-02-28T06:39:39;99341.03;;;6.33;45.60
75717;BME280;64333;50.138;14.332;2023-02-28T06:42:05;99342.28;;;6.75;43.83
75717;BME280;64333;50.138;14.332;2023-02-28T06:44:30;99350.72;;;8.49;40.31
75717;BME280;64333;50.138;14.332;2023-02-28T06:47:03;99352.13;;;8.20;39.82
75717;BME280;64333;50.138;14.332;2023-02-28T06:49:33;99351.13;;;9.15;37.82
75717;BME280;64333;50.138;14.332;2023-02-28T06:51:59;99349.38;;;9.55;37.36
75717;BME280;64333;50.138;14.332;2023-02-28T06:54:24;99343.59;;;9.44;36.77
75717;BME280;64333;50.138;14.332;2023-02-28T06:56:49;99341.72;;;9.14;37.56
75717;BME280;64333;50.138;14.332;2023-02-28T06:59:15;99356.44;;;8.65;37.68
75717;BME280;64333;50.138;14.332;2023-02-28T07:01:41;99360.38;;;9.98;35.84
75717;BME280;64333;50.138;14.332;2023-02-28T07:04:06;99358.44;;;9.71;36.00
75717;BME280;64333;50.138;14.332;2023-02-28T07:06:32;99355.72;;;9.77;35.55
75717;BME280;64333;50.138;14.332;2023-02-28T07:08:58;99354.94;;;10.10;34.49
75717;BME280;64333;50.138;14.332;2023-02-28T07:11:27;99356.22;;;10.59;33.42
75717;BME280;64333;50.138;14.332;2023-02-28T07:13:54;99357.56;;;10.08;34.61
75717;BME280;64333;50.138;14.332;2023-02-28T07:16:19;99359.94;;;10.79;33.19
75717;BME280;64333;50.138;14.332;2023-02-28T07:18:45;99364.16;;;10.52;33.70
75717;BME280;64333;50.138;14.332;2023-02-28T07:21:11;99358.75;;;10.30;33.88
75717;BME280;64333;50.138;14.332;2023-02-28T07:23:37;99354.25;;;10.37;33.64
75717;BME280;64333;50.138;14.332;2023-02-28T07:26:04;99362.41;;;10.54;34.41
75717;BME280;64333;50.138;14.332;2023-02-28T07:28:29;99355.09;;;10.04;34.39
75717;BME280;64333;50.138;14.332;2023-02-28T07:30:55;99360.22;;;10.07;33.80
75717;BME280;64333;50.138;14.332;2023-02-28T07:33:20;99369.75;;;10.37;33.01
75717;BME280;64333;50.138;14.332;2023-02-28T07:35:46;99361.09;;;11.29;32.17
75717;BME280;64333;50.138;14.332;2023-02-28T07:38:11;99363.81;;;8.84;35.78
75717;BME280;64333;50.138;14.332;2023-02-28T07:40:39;99364.75;;;6.55;40.26
75717;BME280;64333;50.138;14.332;2023-02-28T07:43:04;99370.81;;;5.36;42.80
75717;BME280;64333;50.138;14.332;2023-02-28T07:45:31;99366.94;;;4.56;43.64
75717;BME280;64333;50.138;14.332;2023-02-28T07:48:00;99366.16;;;3.55;47.67
75717;BME280;64333;50.138;14.332;2023-02-28T07:50:26;99354.16;;;3.03;49.42
75717;BME280;64333;50.138;14.332;2023-02-28T07:52:54;99372.97;;;3.74;48.39
75717;BME280;64333;50.138;14.332;2023-02-28T07:55:19;99376.28;;;4.75;44.63
75717;BME280;64333;50.138;14.332;2023-02-28T07:57:45;99379.63;;;4.80;44.80
75717;BME280;64333;50.138;14.332;2023-02-28T08:00:11;99367.56;;;7.06;40.23
75717;BME280;64333;50.138;14.332;2023-02-28T08:02:38;99368.47;;;7.63;38.16
75717;BME280;64333;50.138;14.332;2023-02-28T08:05:04;99377.09;;;6.94;39.22
75717;BME280;64333;50.138;14.332;2023-02-28T08:07:29;99375.84;;;7.85;37.55
75717;BME280;64333;50.138;14.332;2023-02-28T08:09:55;99377.84;;;8.21;37.75
75717;BME280;64333;50.138;14.332;2023-02-28T08:12:20;99378.50;;;8.32;36.29
75717;BME280;64333;50.138;14.332;2023-02-28T08:14:46;99371.44;;;9.28;35.65
75717;BME280;64333;50.138;14.332;2023-02-28T08:17:11;99365.81;;;9.49;34.48
75717;BME280;64333;50.138;14.332;2023-02-28T08:19:37;99364.25;;;10.17;33.76
75717;BME280;64333;50.138;14.332;2023-02-28T08:22:03;99364.38;;;11.35;31.99
75717;BME280;64333;50.138;14.332;2023-02-28T08:24:28;99368.91;;;10.00;33.03
75717;BME280;64333;50.138;14.332;2023-02-28T08:26:54;99371.59;;;8.80;34.33
75717;BME280;64333;50.138;14.332;2023-02-28T08:29:20;99361.34;;;9.19;34.12
75717;BME280;64333;50.138;14.332;2023-02-28T08:31:45;99368.53;;;9.05;35.23
75717;BME280;64333;50.138;14.332;2023-02-28T08:34:15;99373.56;;;9.11;34.00
75717;BME280;64333;50.138;14.332;2023-02-28T08:36:41;99382.41;;;8.53;35.08
75717;BME280;64333;50.138;14.332;2023-02-28T08:39:09;99369.75;;;9.67;34.33
75717;BME280;64333;50.138;14.332;2023-02-28T08:41:34;99363.91;;;11.23;30.94
75717;BME280;64333;50.138;14.332;2023-02-28T08:44:00;99369.06;;;10.92;31.56
75717;BME280;64333;50.138;14.332;2023-02-28T08:46:25;99384.00;;;9.04;32.69
75717;BME280;64333;50.138;14.332;2023-02-28T08:48:55;99376.22;;;10.19;32.63
75717;BME280;64333;50.138;14.332;2023-02-28T08:51:24;99371.03;;;10.53;30.91
75717;BME280;64333;50.138;14.332;2023-02-28T08:53:54;99366.56;;;11.76;29.28
75717;BME280;64333;50.138;14.332;2023-02-28T08:56:20;99371.91;;;11.14;30.39
75717;BME280;64333;50.138;14.332;2023-02-28T08:58:47;99376.94;;;10.58;31.01
75717;BME280;64333;50.138;14.332;2023-02-28T09:03:40;99383.19;;;11.40;28.88
75717;BME280;64333;50.138;14.332;2023-02-28T09:06:07;99377.75;;;9.15;33.41
75717;BME280;64333;50.138;14.332;2023-02-28T09:08:33;99353.53;;;9.97;31.71
75717;BME280;64333;50.138;14.332;2023-02-28T09:10:59;99368.75;;;11.62;30.16
75717;BME280;64333;50.138;14.332;2023-02-28T09:13:26;99367.66;;;11.97;28.80
75717;BME280;64333;50.138;14.332;2023-02-28T09:15:52;99373.41;;;11.79;29.47
75717;BME280;64333;50.138;14.332;2023-02-28T09:18:18;99376.94;;;12.02;28.49
75717;BME280;64333;50.138;14.332;2023-02-28T09:20:43;99368.31;;;12.28;28.76
75717;BME280;64333;50.138;14.332;2023-02-28T09:23:11;99360.06;;;11.91;28.94
75717;BME280;64333;50.138;14.332;2023-02-28T09:25:37;99374.97;;;12.35;28.51
75717;BME280;64333;50.138;14.332;2023-02-28T09:28:03;99366.72;;;12.74;28.69
75717;BME280;64333;50.138;14.332;2023-02-28T09:30:29;99344.38;;;11.95;29.30
75717;BME280;64333;50.138;14.332;2023-02-28T09:32:54;99366.03;;;13.17;27.14
75717;BME280;64333;50.138;14.332;2023-02-28T09:35:21;99359.53;;;13.05;27.32
75717;BME280;64333;50.138;14.332;2023-02-28T09:37:48;99366.28;;;13.55;27.06
75717;BME280;64333;50.138;14.332;2023-02-28T09:40:14;99364.31;;;12.68;26.97
75717;BME280;64333;50.138;14.332;2023-02-28T09:42:42;99366.06;;;12.68;27.52
75717;BME280;64333;50.138;14.332;2023-02-28T09:45:22;99372.28;;;12.13;27.41
75717;BME280;64333;50.138;14.332;2023-02-28T09:47:50;99368.59;;;11.94;28.45
75717;BME280;64333;50.138;14.332;2023-02-28T09:52:52;99364.47;;;14.00;25.75
75717;BME280;64333;50.138;14.332;2023-02-28T09:55:28;99378.97;;;11.65;26.49
75717;BME280;64333;50.138;14.332;2023-02-28T09:57:54;99377.63;;;12.59;27.60
75717;BME280;64333;50.138;14.332;2023-02-28T10:00:25;99384.03;;;11.70;28.53
75717;BME280;64333;50.138;14.332;2023-02-28T10:05:55;99363.19;;;11.45;29.67
75717;BME280;64333;50.138;14.332;2023-02-28T10:08:30;99372.84;;;11.69;27.62
75717;BME280;64333;50.138;14.332;2023-02-28T10:11:00;99380.84;;;12.15;27.72
75717;BME280;64333;50.138;14.332;2023-02-28T10:16:12;99370.28;;;10.16;30.58
75717;BME280;64333;50.138;14.332;2023-02-28T10:18:46;99361.69;;;11.38;29.16
75717;BME280;64333;50.138;14.332;2023-02-28T10:23:53;99364.47;;;13.36;27.12
75717;BME280;64333;50.138;14.332;2023-02-28T10:26:22;99366.72;;;13.66;26.02
75717;BME280;64333;50.138;14.332;2023-02-28T10:28:51;99371.38;;;14.23;25.13
75717;BME280;64333;50.138;14.332;2023-02-28T10:31:19;99364.88;;;12.53;26.62
75717;BME280;64333;50.138;14.332;2023-02-28T10:33:44;99366.56;;;10.26;30.42
75717;BME280;64333;50.138;14.332;2023-02-28T10:36:20;99364.72;;;11.23;28.66
75717;BME280;64333;50.138;14.332;2023-02-28T10:38:46;99364.75;;;12.32;27.83
75717;BME280;64333;50.138;14.332;2023-02-28T10:41:32;99361.66;;;12.96;26.72
75717;BME280;64333;50.138;14.332;2023-02-28T10:44:14;99360.50;;;13.49;25.84
75717;BME280;64333;50.138;14.332;2023-02-28T10:46:41;99359.53;;;12.81;27.18
75717;BME280;64333;50.138;14.332;2023-02-28T10:49:27;99354.41;;;13.27;26.47
75717;BME280;64333;50.138;14.332;2023-02-28T10:52:03;99356.50;;;13.40;26.06
75717;BME280;64333;50.138;14.332;2023-02-28T10:59:32;99355.84;;;14.41;24.82
75717;BME280;64333;50.138;14.332;2023-02-28T11:01:57;99353.88;;;12.96;26.68
75717;BME280;64333;50.138;14.332;2023-02-28T11:09:46;99352.38;;;12.14;27.73
75717;BME280;64333;50.138;14.332;2023-02-28T11:12:21;99360.06;;;12.17;27.84
75717;BME280;64333;50.138;14.332;2023-02-28T11:14:49;99347.72;;;13.21;26.45
75717;BME280;64333;50.138;14.332;2023-02-28T11:17:31;99337.75;;;12.13;27.60
75717;BME280;64333;50.138;14.332;2023-02-28T11:19:59;99335.19;;;13.75;26.40
75717;BME280;64333;50.138;14.332;2023-02-28T11:22:30;99340.47;;;14.57;25.13
75717;BME280;64333;50.138;14.332;2023-02-28T11:24:59;99340.66;;;14.11;25.16
75717;BME280;64333;50.138;14.332;2023-02-28T11:29:54;99347.56;;;12.29;27.82
75717;BME280;64333;50.138;14.332;2023-02-28T11:32:21;99331.94;;;10.95;28.74
75717;BME280;64333;50.138;14.332;2023-02-28T11:35:02;99333.13;;;12.22;28.63
75717;BME280;64333;50.138;14.332;2023-02-28T11:37:28;99320.81;;;12.76;26.83
75717;BME280;64333;50.138;14.332;2023-02-28T11:39:55;99326.69;;;13.29;26.33
75717;BME280;64333;50.138;14.332;2023-02-28T11:42:39;99323.91;;;12.38;26.81
75717;BME280;64333;50.138;14.332;2023-02-28T11:47:59;99325.75;;;11.29;30.28
75717;BME280;64333;50.138;14.332;2023-02-28T11:53:21;99326.25;;;11.13;28.96
75717;BME280;64333;50.138;14.332;2023-02-28T11:58:52;99313.50;;;12.40;27.95
75717;BME280;64333;50.138;14.332;2023-02-28T12:10:02;99299.59;;;13.13;26.50
75717;BME280;64333;50.138;14.332;2023-02-28T12:12:41;99304.94;;;13.31;25.93
75717;BME280;64333;50.138;14.332;2023-02-28T12:18:26;99298.06;;;13.30;26.04
75717;BME280;64333;50.138;14.332;2023-02-28T12:21:18;99294.47;;;14.17;25.11
75717;BME280;64333;50.138;14.332;2023-02-28T12:26:46;99292.09;;;13.05;27.00
75717;BME280;64333;50.138;14.332;2023-02-28T12:29:31;99299.00;;;13.06;26.07
75717;BME280;64333;50.138;14.332;2023-02-28T12:32:11;99297.16;;;14.16;25.60
75717;BME280;64333;50.138;14.332;2023-02-28T12:34:42;99291.81;;;13.77;25.45
75717;BME280;64333;50.138;14.332;2023-02-28T12:37:14;99279.28;;;14.08;25.01
75717;BME280;64333;50.138;14.332;2023-02-28T12:39:45;99302.19;;;14.40;24.49
75717;BME280;64333;50.138;14.332;2023-02-28T12:42:17;99299.63;;;15.53;23.63
75717;BME280;64333;50.138;14.332;2023-02-28T12:44:55;99288.72;;;15.26;23.73
75717;BME280;64333;50.138;14.332;2023-02-28T12:47:21;99273.56;;;16.05;22.71
75717;BME280;64333;50.138;14.332;2023-02-28T12:49:51;99279.50;;;14.24;25.18
75717;BME280;64333;50.138;14.332;2023-02-28T12:52:38;99287.88;;;14.30;24.46
75717;BME280;64333;50.138;14.332;2023-02-28T12:55:18;99282.44;;;15.30;23.46
75717;BME280;64333;50.138;14.332;2023-02-28T13:03:49;99282.13;;;14.02;25.27
75717;BME280;64333;50.138;14.332;2023-02-28T13:06:34;99281.97;;;15.22;24.47
75717;BME280;64333;50.138;14.332;2023-02-28T13:09:09;99276.53;;;15.08;24.04
75717;BME280;64333;50.138;14.332;2023-02-28T13:14:26;99269.41;;;16.01;24.28
75717;BME280;64333;50.138;14.332;2023-02-28T13:17:40;99276.50;;;14.53;25.08
75717;BME280;64333;50.138;14.332;2023-02-28T13:22:41;99265.00;;;14.95;23.87
75717;BME280;64333;50.138;14.332;2023-02-28T13:28:02;99271.84;;;12.21;28.01
75717;BME280;64333;50.138;14.332;2023-02-28T13:33:31;99257.59;;;13.68;26.29
75717;BME280;64333;50.138;14.332;2023-02-28T13:38:49;99235.22;;;16.89;47.73
75717;BME280;64333;50.138;14.332;2023-02-28T13:44:19;99258.56;;;17.23;24.67
75717;BME280;64333;50.138;14.332;2023-02-28T13:57:44;99242.03;;;14.86;24.10
75717;BME280;64333;50.138;14.332;2023-02-28T14:05:30;99230.34;;;14.58;24.58
75717;BME280;64333;50.138;14.332;2023-02-28T14:07:59;99245.44;;;15.42;23.94
75717;BME280;64333;50.138;14.332;2023-02-28T14:10:31;99242.03;;;15.59;23.76
75717;BME280;64333;50.138;14.332;2023-02-28T14:13:03;99246.66;;;14.80;24.22
75717;BME280;64333;50.138;14.332;2023-02-28T14:15:58;99241.31;;;15.38;24.67
75717;BME280;64333;50.138;14.332;2023-02-28T14:18:33;99245.34;;;15.96;23.04
75717;BME280;64333;50.138;14.332;2023-02-28T14:21:32;99245.84;;;12.24;28.08
75717;BME280;64333;50.138;14.332;2023-02-28T14:38:40;99223.72;;;14.69;24.89
75717;BME280;64333;50.138;14.332;2023-02-28T14:41:15;99215.53;;;14.78;25.18
75717;BME280;64333;50.138;14.332;2023-02-28T14:43:54;99211.22;;;14.77;24.97
75717;BME280;64333;50.138;14.332;2023-02-28T14:46:21;99216.56;;;11.20;29.58
75717;BME280;64333;50.138;14.332;2023-02-28T14:48:48;99213.03;;;10.68;30.55
75717;BME280;64333;50.138;14.332;2023-02-28T14:51:19;99206.91;;;10.41;31.67
75717;BME280;64333;50.138;14.332;2023-02-28T14:53:49;99211.25;;;11.50;30.01
75717;BME280;64333;50.138;14.332;2023-02-28T14:56:34;99214.47;;;10.49;32.16
75717;BME280;64333;50.138;14.332;2023-02-28T14:59:00;99214.19;;;10.87;31.04
75717;BME280;64333;50.138;14.332;2023-02-28T15:01:26;99217.25;;;11.26;30.50
75717;BME280;64333;50.138;14.332;2023-02-28T15:04:03;99214.19;;;8.93;33.15
75717;BME280;64333;50.138;14.332;2023-02-28T15:06:29;99217.25;;;9.44;34.18
75717;BME280;64333;50.138;14.332;2023-02-28T15:09:15;99213.16;;;9.35;34.09
75717;BME280;64333;50.138;14.332;2023-02-28T15:11:41;99209.66;;;9.03;34.72
75717;BME280;64333;50.138;14.332;2023-02-28T15:14:17;99210.19;;;8.79;35.73
75717;BME280;64333;50.138;14.332;2023-02-28T15:16:45;99212.47;;;8.10;36.89
75717;BME280;64333;50.138;14.332;2023-02-28T15:19:26;99212.97;;;6.15;40.72